Time;durP1;ratioP1;P1;durP2;ratioP2;P2;SDS_P1;SDS_P2;PMS_P1;PMS_P2;Temp;Humidity;BMP_temperature;BMP_pressure;BME280_temperature;BME280_humidity;BME280_pressure;Samples;Min_cycle;Max_cycle;Signal;HPM_P1;HPM_P2
2023/03/28 00:00:07;;;;;;;;;;;17.50;66.40;;;;;;5038035;28;1014;-68
2023/03/28 00:02:33;;;;;;;;;;;17.50;66.40;;;;;;5039086;28;812;-68
2023/03/28 00:04:59;;;;;;;;;;;17.50;66.40;;;;;;5039764;28;1906;-69
2023/03/28 00:07:26;;;;;;;;;;;17.50;66.40;;;;;;5038210;28;929;-69
2023/03/28 00:09:51;;;;;;;;;;;17.50;66.40;;;;;;5036824;28;876;-68
2023/03/28 00:12:17;;;;;;;;;;;17.50;66.40;;;;;;5071091;28;950;-68
2023/03/28 00:14:42;;;;;;;;;;;17.50;66.40;;;;;;5037151;28;1387;-68
2023/03/28 00:17:08;;;;;;;;;;;17.50;66.40;;;;;;5036841;28;1264;-68
2023/03/28 00:19:33;;;;;;;;;;;17.50;66.40;;;;;;5034351;28;832;-68
2023/03/28 00:21:59;;;;;;;;;;;17.50;66.40;;;;;;5039036;28;918;-68
2023/03/28 00:24:24;;;;;;;;;;;17.50;66.40;;;;;;5034633;28;1362;-68
2023/03/28 00:26:53;;;;;;;;;;;17.50;66.40;;;;;;5065960;28;1906;-68
2023/03/28 00:29:19;;;;;;;;;;;17.50;66.30;;;;;;5036496;28;864;-68
2023/03/28 00:31:45;;;;;;;;;;;17.50;66.30;;;;;;5038412;28;860;-67
2023/03/28 00:34:11;;;;;;;;;;;17.50;66.40;;;;;;5037700;28;1313;-69
2023/03/28 00:36:38;;;;;;;;;;;17.50;66.40;;;;;;5040251;28;1432;-69
2023/03/28 00:39:05;;;;;;;;;;;17.50;66.30;;;;;;5034196;28;851;-69
2023/03/28 00:41:31;;;;;;;;;;;17.50;66.30;;;;;;5035349;28;895;-69
2023/03/28 00:43:57;;;;;;;;;;;17.50;66.30;;;;;;5046280;28;1255;-69
2023/03/28 00:46:35;;;;;;;;;;;17.50;66.30;;;;;;5038882;28;1882;-68
2023/03/28 00:49:02;;;;;;;;;;;17.50;66.30;;;;;;5035263;28;1067;-68
2023/03/28 00:51:29;;;;;;;;;;;17.50;66.30;;;;;;5037429;28;841;-69
2023/03/28 00:53:56;;;;;;;;;;;17.50;66.30;;;;;;5039489;28;1235;-68
2023/03/28 00:56:22;;;;;;;;;;;17.60;66.40;;;;;;5037308;28;868;-68
2023/03/28 00:58:48;;;;;;;;;;;17.50;66.30;;;;;;5038015;28;856;-69
2023/03/28 01:01:14;;;;;;;;;;;17.50;66.30;;;;;;5037658;28;869;-70
2023/03/28 01:03:40;;;;;;;;;;;17.50;66.30;;;;;;5046605;28;1224;-70
2023/03/28 01:06:06;;;;;;;;;;;17.50;66.30;;;;;;5070782;28;1955;-70
2023/03/28 01:08:32;;;;;;;;;;;17.50;66.30;;;;;;5028367;28;1348;-70
2023/03/28 01:10:57;;;;;;;;;;;17.50;66.30;;;;;;5036521;28;833;-70
2023/03/28 01:13:24;;;;;;;;;;;17.50;66.30;;;;;;5038368;28;872;-71
2023/03/28 01:15:50;;;;;;;;;;;17.50;66.30;;;;;;5071105;28;1241;-71
2023/03/28 01:18:17;;;;;;;;;;;17.50;66.40;;;;;;5040005;28;1290;-71
2023/03/28 01:20:52;;;;;;;;;;;17.50;66.30;;;;;;5071023;28;860;-70
2023/03/28 01:23:36;;;;;;;;;;;17.50;66.30;;;;;;5044149;28;1506;-70
2023/03/28 01:26:04;;;;;;;;;;;17.50;66.30;;;;;;5038696;28;1965;-71
2023/03/28 01:28:48;;;;;;;;;;;17.50;66.30;;;;;;5047772;28;884;-70
2023/03/28 01:31:32;;;;;;;;;;;17.50;66.30;;;;;;5040337;28;876;-70
2023/03/28 01:34:10;;;;;;;;;;;17.50;66.30;;;;;;5038751;28;1285;-70
2023/03/28 01:36:41;;;;;;;;;;;17.50;66.30;;;;;;5036128;28;974;-70
2023/03/28 01:39:12;;;;;;;;;;;17.50;66.30;;;;;;5037305;28;888;-70
2023/03/28 01:41:40;;;;;;;;;;;17.50;66.30;;;;;;5036237;28;805;-69
2023/03/28 01:44:09;;;;;;;;;;;17.50;66.30;;;;;;5037295;28;1256;-69
2023/03/28 01:46:40;;;;;;;;;;;17.50;66.40;;;;;;5068695;28;1957;-69
2023/03/28 01:49:12;;;;;;;;;;;17.50;66.30;;;;;;5033201;28;939;-68
2023/03/28 01:51:56;;;;;;;;;;;17.50;66.40;;;;;;5072214;28;915;-68
2023/03/28 01:54:40;;;;;;;;;;;17.50;66.30;;;;;;5038782;28;1224;-68
2023/03/28 01:57:17;;;;;;;;;;;17.50;66.30;;;;;;5040653;28;919;-68
2023/03/28 02:00:10;;;;;;;;;;;17.50;66.40;;;;;;5042666;28;836;-68
2023/03/28 02:02:37;;;;;;;;;;;17.50;66.40;;;;;;5038414;28;1475;-69
2023/03/28 02:05:05;;;;;;;;;;;17.50;66.40;;;;;;5028018;28;1898;-69
2023/03/28 02:07:30;;;;;;;;;;;17.50;66.30;;;;;;5037672;28;1073;-69
2023/03/28 02:09:56;;;;;;;;;;;17.50;66.30;;;;;;5042281;28;838;-69
2023/03/28 02:12:23;;;;;;;;;;;17.50;66.40;;;;;;5049576;28;940;-69
2023/03/28 02:14:49;;;;;;;;;;;17.50;66.40;;;;;;5028547;28;1342;-69
2023/03/28 02:17:15;;;;;;;;;;;17.50;66.40;;;;;;5041119;28;952;-69
2023/03/28 02:19:54;;;;;;;;;;;17.50;66.30;;;;;;5039126;28;1171;-69
2023/03/28 02:22:34;;;;;;;;;;;17.50;66.40;;;;;;5043190;28;1346;-69
2023/03/28 02:24:59;;;;;;;;;;;17.50;66.40;;;;;;5073437;28;1988;-69
2023/03/28 02:27:25;;;;;;;;;;;17.50;66.40;;;;;;5041245;28;1380;-69
2023/03/28 02:29:53;;;;;;;;;;;17.50;66.40;;;;;;5039644;28;1489;-68
2023/03/28 02:32:20;;;;;;;;;;;17.50;66.40;;;;;;5040245;28;855;-68
2023/03/28 02:34:47;;;;;;;;;;;17.50;66.30;;;;;;5039809;28;1241;-68
2023/03/28 02:37:31;;;;;;;;;;;17.50;66.30;;;;;;5072940;28;1472;-68
2023/03/28 02:40:06;;;;;;;;;;;17.50;66.30;;;;;;5040974;28;1074;-68
2023/03/28 02:42:50;;;;;;;;;;;17.50;66.40;;;;;;5038128;28;864;-68
2023/03/28 02:45:28;;;;;;;;;;;17.50;66.30;;;;;;5040421;28;1984;-68
2023/03/28 02:47:58;;;;;;;;;;;17.50;66.30;;;;;;5041526;28;817;-68
2023/03/28 02:50:24;;;;;;;;;;;17.50;66.30;;;;;;5035751;28;956;-69
2023/03/28 02:52:52;;;;;;;;;;;17.50;66.30;;;;;;5041180;28;821;-69
2023/03/28 02:55:24;;;;;;;;;;;17.50;66.30;;;;;;5060886;28;1305;-69
2023/03/28 02:57:51;;;;;;;;;;;17.50;66.30;;;;;;5037968;28;817;-69
2023/03/28 03:00:17;;;;;;;;;;;17.50;66.30;;;;;;5075121;28;858;-69
2023/03/28 03:02:43;;;;;;;;;;;17.50;66.30;;;;;;5037071;28;856;-69
2023/03/28 03:05:08;;;;;;;;;;;17.50;66.30;;;;;;5068855;28;1902;-68
2023/03/28 03:07:36;;;;;;;;;;;17.50;66.30;;;;;;5038949;28;924;-68
2023/03/28 03:10:03;;;;;;;;;;;17.50;66.30;;;;;;5069782;28;837;-69
2023/03/28 03:12:28;;;;;;;;;;;17.50;66.30;;;;;;5040124;28;875;-69
2023/03/28 03:14:54;;;;;;;;;;;17.50;66.30;;;;;;5041759;28;1342;-69
2023/03/28 03:17:19;;;;;;;;;;;17.50;66.30;;;;;;5039244;28;984;-68
2023/03/28 03:19:45;;;;;;;;;;;17.50;66.30;;;;;;5041103;28;797;-67
2023/03/28 03:22:10;;;;;;;;;;;17.50;66.30;;;;;;5071778;28;812;-68
2023/03/28 03:24:36;;;;;;;;;;;17.50;66.30;;;;;;5037980;28;1355;-68
2023/03/28 03:27:02;;;;;;;;;;;17.50;66.30;;;;;;5038802;28;1973;-68
2023/03/28 03:29:27;;;;;;;;;;;17.50;66.30;;;;;;5039026;28;915;-68
2023/03/28 03:31:53;;;;;;;;;;;17.50;66.30;;;;;;5048875;28;824;-69
2023/03/28 03:34:18;;;;;;;;;;;17.50;66.30;;;;;;5044602;28;1334;-69
2023/03/28 03:36:43;;;;;;;;;;;17.50;66.30;;;;;;5044821;28;981;-69
2023/03/28 03:39:09;;;;;;;;;;;17.50;66.30;;;;;;5042516;28;788;-68
2023/03/28 03:41:35;;;;;;;;;;;17.50;66.30;;;;;;5038897;28;896;-68
2023/03/28 03:44:00;;;;;;;;;;;17.50;66.30;;;;;;5039684;28;1339;-67
2023/03/28 03:46:26;;;;;;;;;;;17.50;66.30;;;;;;5039508;28;1898;-68
2023/03/28 03:48:51;;;;;;;;;;;17.50;66.30;;;;;;5041369;28;806;-68
2023/03/28 03:51:17;;;;;;;;;;;17.50;66.30;;;;;;5038217;28;833;-68
2023/03/28 03:53:43;;;;;;;;;;;17.50;66.30;;;;;;5040502;28;1237;-68
2023/03/28 03:56:09;;;;;;;;;;;17.50;66.30;;;;;;5045783;28;1559;-68
2023/03/28 03:58:35;;;;;;;;;;;17.50;66.30;;;;;;5038537;28;806;-68
2023/03/28 04:01:00;;;;;;;;;;;17.50;66.30;;;;;;5038174;28;804;-68
2023/03/28 04:03:26;;;;;;;;;;;17.50;66.30;;;;;;5036273;28;900;-68
2023/03/28 04:05:53;;;;;;;;;;;17.50;66.30;;;;;;5038107;28;1986;-68
2023/03/28 04:08:19;;;;;;;;;;;17.50;66.30;;;;;;5046523;28;800;-68
2023/03/28 04:10:45;;;;;;;;;;;17.50;66.30;;;;;;5036717;28;1082;-68
2023/03/28 04:13:11;;;;;;;;;;;17.50;66.20;;;;;;5045982;28;972;-68
2023/03/28 04:15:36;;;;;;;;;;;17.50;66.10;;;;;;5046300;28;1301;-68
2023/03/28 04:18:03;;;;;;;;;;;17.60;66.20;;;;;;5039681;28;1280;-68
2023/03/28 04:20:28;;;;;;;;;;;17.60;66.00;;;;;;5033564;28;1859;-66
2023/03/28 04:22:54;;;;;;;;;;;17.60;65.90;;;;;;5038386;28;2050;-67
2023/03/28 04:25:19;;;;;;;;;;;17.60;65.80;;;;;;5043661;28;1902;-68
2023/03/28 04:27:47;;;;;;;;;;;17.60;65.70;;;;;;5038424;28;1163;-70
2023/03/28 04:30:14;;;;;;;;;;;17.70;65.60;;;;;;5038696;28;852;-68
2023/03/28 04:32:40;;;;;;;;;;;17.70;65.50;;;;;;5070275;28;898;-67
2023/03/28 04:35:06;;;;;;;;;;;17.70;65.40;;;;;;5040305;28;1280;-67
2023/03/28 04:37:32;;;;;;;;;;;17.80;65.40;;;;;;5039619;28;1352;-67
2023/03/28 04:40:00;;;;;;;;;;;17.80;65.30;;;;;;5038537;28;784;-68
2023/03/28 04:42:26;;;;;;;;;;;17.80;65.20;;;;;;5037369;28;875;-70
2023/03/28 04:44:51;;;;;;;;;;;17.90;65.10;;;;;;5038251;28;1267;-69
2023/03/28 04:47:17;;;;;;;;;;;17.90;65.10;;;;;;5038979;28;1898;-70
2023/03/28 04:49:42;;;;;;;;;;;17.90;65.00;;;;;;5037726;28;857;-70
2023/03/28 04:52:08;;;;;;;;;;;17.90;64.90;;;;;;5038614;28;1333;-69
2023/03/28 04:54:33;;;;;;;;;;;17.90;64.80;;;;;;5040300;28;1263;-69
2023/03/28 04:56:59;;;;;;;;;;;17.90;64.80;;;;;;5036114;28;816;-70
2023/03/28 04:59:24;;;;;;;;;;;17.90;64.70;;;;;;5034837;28;1356;-70
2023/03/28 05:01:50;;;;;;;;;;;18.00;64.70;;;;;;5042297;28;1457;-74
2023/03/28 05:04:16;;;;;;;;;;;17.90;64.70;;;;;;5035636;28;1375;-70
2023/03/28 05:06:43;;;;;;;;;;;18.00;64.60;;;;;;5066697;28;1953;-72
2023/03/28 05:09:09;;;;;;;;;;;18.00;64.60;;;;;;5035833;28;882;-73
2023/03/28 05:11:35;;;;;;;;;;;18.00;64.60;;;;;;5039411;28;840;-73
2023/03/28 05:14:01;;;;;;;;;;;18.00;64.70;;;;;;5040547;28;1292;-73
2023/03/28 05:16:27;;;;;;;;;;;18.00;64.70;;;;;;5040565;28;919;-73
2023/03/28 05:18:52;;;;;;;;;;;18.00;64.70;;;;;;5036506;28;1304;-67
2023/03/28 05:21:18;;;;;;;;;;;18.00;64.60;;;;;;5039524;28;1330;-68
2023/03/28 05:23:43;;;;;;;;;;;18.00;64.60;;;;;;5038768;28;1351;-67
2023/03/28 05:26:09;;;;;;;;;;;18.00;64.60;;;;;;5044039;28;1968;-68
2023/03/28 05:28:34;;;;;;;;;;;18.10;64.60;;;;;;5073927;28;1050;-68
2023/03/28 05:31:00;;;;;;;;;;;18.00;64.60;;;;;;5040534;28;883;-69
2023/03/28 05:33:25;;;;;;;;;;;18.00;64.70;;;;;;5038506;28;963;-70
2023/03/28 05:35:52;;;;;;;;;;;18.00;64.70;;;;;;5040355;28;1283;-68
2023/03/28 05:38:17;;;;;;;;;;;18.00;64.70;;;;;;5042417;28;1451;-69
2023/03/28 05:40:43;;;;;;;;;;;18.00;64.70;;;;;;5042022;28;842;-72
2023/03/28 05:43:08;;;;;;;;;;;18.00;64.80;;;;;;5043030;28;891;-69
2023/03/28 05:45:34;;;;;;;;;;;18.00;64.80;;;;;;5038688;28;1926;-68
2023/03/28 05:47:59;;;;;;;;;;;18.00;64.80;;;;;;5040575;28;1326;-71
2023/03/28 05:50:25;;;;;;;;;;;18.00;64.80;;;;;;5040236;28;864;-70
2023/03/28 05:52:50;;;;;;;;;;;17.90;64.80;;;;;;5043413;28;863;-71
2023/03/28 05:55:16;;;;;;;;;;;17.90;64.80;;;;;;5073746;28;1223;-70
2023/03/28 05:57:42;;;;;;;;;;;17.90;64.80;;;;;;5042709;28;895;-69
2023/03/28 06:00:12;;;;;;;;;;;17.90;65.60;;;;;;5041621;28;851;-70
2023/03/28 06:02:39;;;;;;;;;;;17.90;64.80;;;;;;5039728;28;850;-69
2023/03/28 06:05:06;;;;;;;;;;;17.90;64.90;;;;;;5040005;28;1948;-71
2023/03/28 06:07:31;;;;;;;;;;;17.90;64.90;;;;;;5038208;28;1296;-70
2023/03/28 06:09:57;;;;;;;;;;;17.90;64.90;;;;;;5038712;28;868;-72
2023/03/28 06:12:22;;;;;;;;;;;17.90;65.00;;;;;;5038941;28;884;-71
2023/03/28 06:14:48;;;;;;;;;;;17.90;65.00;;;;;;5039354;28;1426;-71
2023/03/28 06:17:14;;;;;;;;;;;17.90;65.00;;;;;;5058229;28;1210;-69
2023/03/28 06:19:39;;;;;;;;;;;17.90;65.80;;;;;;5040675;28;922;-69
2023/03/28 06:22:05;;;;;;;;;;;17.90;65.10;;;;;;5038006;28;872;-70
2023/03/28 06:24:30;;;;;;;;;;;17.90;65.10;;;;;;5036823;28;1265;-69
2023/03/28 06:26:56;;;;;;;;;;;17.90;65.10;;;;;;5038085;28;1981;-69
2023/03/28 06:29:21;;;;;;;;;;;17.90;65.10;;;;;;5039124;28;1220;-70
2023/03/28 06:31:47;;;;;;;;;;;17.90;65.10;;;;;;5041573;28;833;-70
2023/03/28 06:34:12;;;;;;;;;;;17.90;65.10;;;;;;5038331;28;1363;-69
2023/03/28 06:36:38;;;;;;;;;;;17.90;65.10;;;;;;5042287;28;1360;-70
2023/03/28 06:39:04;;;;;;;;;;;17.80;65.00;;;;;;5039222;28;785;-70
2023/03/28 06:41:29;;;;;;;;;;;17.80;65.10;;;;;;5040647;28;819;-71
2023/03/28 06:43:54;;;;;;;;;;;17.90;65.20;;;;;;5037236;28;1357;-71
2023/03/28 06:46:20;;;;;;;;;;;17.80;65.20;;;;;;5040337;28;1973;-70
2023/03/28 06:48:45;;;;;;;;;;;17.80;65.20;;;;;;5041782;28;774;-70
2023/03/28 06:51:14;;;;;;;;;;;17.80;65.20;;;;;;5040568;28;848;-71
2023/03/28 06:53:39;;;;;;;;;;;17.80;65.20;;;;;;5040374;28;1256;-70
2023/03/28 06:56:05;;;;;;;;;;;17.80;65.20;;;;;;5042015;28;832;-70
2023/03/28 06:58:31;;;;;;;;;;;17.80;65.30;;;;;;5040231;28;867;-70
2023/03/28 07:00:59;;;;;;;;;;;17.80;65.30;;;;;;5059390;28;1492;-70
2023/03/28 07:03:25;;;;;;;;;;;17.80;66.10;;;;;;5040107;28;836;-70
2023/03/28 07:05:50;;;;;;;;;;;17.80;65.40;;;;;;5039875;28;1976;-70
2023/03/28 07:08:16;;;;;;;;;;;17.80;65.40;;;;;;5072080;28;939;-70
2023/03/28 07:10:42;;;;;;;;;;;17.80;65.40;;;;;;5043817;28;840;-70
2023/03/28 07:13:07;;;;;;;;;;;17.80;65.40;;;;;;5040984;28;820;-70
2023/03/28 07:15:33;;;;;;;;;;;17.80;65.40;;;;;;5068381;28;1500;-70
2023/03/28 07:17:58;;;;;;;;;;;17.80;65.40;;;;;;5047661;28;914;-70
2023/03/28 07:20:24;;;;;;;;;;;17.70;65.30;;;;;;5040490;28;837;-70
2023/03/28 07:22:49;;;;;;;;;;;17.70;65.40;;;;;;5035796;28;2436;-70
2023/03/28 07:25:15;;;;;;;;;;;17.80;65.40;;;;;;5048396;28;1918;-70
2023/03/28 07:27:41;;;;;;;;;;;17.70;65.40;;;;;;5039821;28;1129;-70
2023/03/28 07:30:06;;;;;;;;;;;17.70;65.40;;;;;;5038489;28;799;-70
2023/03/28 07:32:32;;;;;;;;;;;17.70;65.40;;;;;;5042230;28;1486;-70
2023/03/28 07:34:58;;;;;;;;;;;17.70;65.40;;;;;;5037100;28;1300;-70
2023/03/28 07:37:24;;;;;;;;;;;17.70;65.40;;;;;;5041299;28;1381;-70
2023/03/28 07:39:49;;;;;;;;;;;17.70;65.40;;;;;;5037906;28;880;-70
2023/03/28 07:42:15;;;;;;;;;;;17.70;65.50;;;;;;5036966;28;804;-70
2023/03/28 07:44:40;;;;;;;;;;;17.70;65.40;;;;;;5042498;28;1364;-70
2023/03/28 07:47:06;;;;;;;;;;;17.70;65.50;;;;;;5039299;28;1902;-69
2023/03/28 07:49:32;;;;;;;;;;;17.70;65.50;;;;;;5043085;28;877;-70
2023/03/28 07:51:58;;;;;;;;;;;17.70;65.50;;;;;;5037773;28;973;-70
2023/03/28 07:54:23;;;;;;;;;;;17.70;65.50;;;;;;5039028;28;1438;-71
2023/03/28 07:56:49;;;;;;;;;;;17.70;65.50;;;;;;5040249;28;865;-69
2023/03/28 07:59:14;;;;;;;;;;;17.70;65.50;;;;;;5037939;28;918;-69
2023/03/28 08:01:40;;;;;;;;;;;17.70;65.60;;;;;;5037939;28;981;-70
2023/03/28 08:04:06;;;;;;;;;;;17.70;65.60;;;;;;5071683;28;1268;-70
2023/03/28 08:06:33;;;;;;;;;;;17.70;65.60;;;;;;5037771;28;1988;-70
2023/03/28 08:08:59;;;;;;;;;;;17.70;65.60;;;;;;5047299;28;1605;-70
2023/03/28 08:11:25;;;;;;;;;;;17.70;65.60;;;;;;5040401;28;1474;-70
2023/03/28 08:13:51;;;;;;;;;;;17.70;65.60;;;;;;5038168;28;1283;-70
2023/03/28 08:16:16;;;;;;;;;;;17.70;65.60;;;;;;5038646;28;915;-71
2023/03/28 08:18:42;;;;;;;;;;;17.70;65.60;;;;;;5039808;28;1266;-70
2023/03/28 08:21:07;;;;;;;;;;;17.70;65.60;;;;;;5035972;28;835;-70
2023/03/28 08:23:33;;;;;;;;;;;17.70;65.70;;;;;;5070565;28;879;-70
2023/03/28 08:26:04;;;;;;;;;;;17.70;65.60;;;;;;5037290;28;1906;-70
2023/03/28 08:28:31;;;;;;;;;;;17.70;65.70;;;;;;5070535;28;841;-71
2023/03/28 08:30:56;;;;;;;;;;;17.70;65.70;;;;;;5035693;28;843;-71
2023/03/28 08:33:22;;;;;;;;;;;17.70;65.80;;;;;;5037222;28;1031;-70
2023/03/28 08:35:50;;;;;;;;;;;17.70;65.90;;;;;;5038413;28;2149;-71
2023/03/28 08:38:17;;;;;;;;;;;17.70;65.90;;;;;;5074905;28;1186;-71
2023/03/28 08:40:44;;;;;;;;;;;17.70;65.80;;;;;;5040295;28;1853;-71
2023/03/28 08:43:12;;;;;;;;;;;17.70;65.80;;;;;;5048412;28;1448;-70
2023/03/28 08:45:41;;;;;;;;;;;17.70;65.80;;;;;;5036503;28;1902;-69
2023/03/28 08:48:10;;;;;;;;;;;17.70;65.90;;;;;;5038978;28;1983;-69
2023/03/28 08:50:40;;;;;;;;;;;17.70;65.80;;;;;;5038429;28;1362;-69
2023/03/28 08:53:05;;;;;;;;;;;17.70;65.80;;;;;;5035783;28;939;-69
2023/03/28 08:55:40;;;;;;;;;;;17.60;65.80;;;;;;5035886;28;1315;-69
2023/03/28 08:58:10;;;;;;;;;;;17.70;65.80;;;;;;5037477;28;892;-69
2023/03/28 09:00:35;;;;;;;;;;;17.70;65.80;;;;;;5038855;28;899;-71
2023/03/28 09:03:01;;;;;;;;;;;17.60;65.70;;;;;;5040725;28;921;-70
2023/03/28 09:05:29;;;;;;;;;;;17.70;65.70;;;;;;5073961;28;1872;-70
2023/03/28 09:08:19;;;;;;;;;;;17.70;65.80;;;;;;5040746;28;879;-70
2023/03/28 09:10:46;;;;;;;;;;;17.70;65.70;;;;;;5035579;28;1022;-70
2023/03/28 09:13:21;;;;;;;;;;;17.70;65.70;;;;;;5048931;28;889;-69
2023/03/28 09:15:49;;;;;;;;;;;17.70;65.70;;;;;;5049481;28;1348;-71
2023/03/28 09:18:18;;;;;;;;;;;17.70;65.70;;;;;;5039830;28;988;-71
2023/03/28 09:20:55;;;;;;;;;;;17.60;65.70;;;;;;5040362;28;907;-69
2023/03/28 09:23:40;;;;;;;;;;;17.70;65.80;;;;;;5041328;28;895;-70
2023/03/28 09:26:26;;;;;;;;;;;17.70;65.70;;;;;;5042020;28;1910;-70
2023/03/28 09:28:55;;;;;;;;;;;17.70;65.80;;;;;;5039461;28;899;-70
2023/03/28 09:31:21;;;;;;;;;;;17.70;65.80;;;;;;5038455;28;923;-70
2023/03/28 09:33:47;;;;;;;;;;;17.70;65.80;;;;;;5074882;28;2059;-70
2023/03/28 09:36:19;;;;;;;;;;;17.60;65.70;;;;;;5042520;28;1591;-69
2023/03/28 09:38:44;;;;;;;;;;;17.60;65.70;;;;;;5042464;28;1316;-69
2023/03/28 09:41:11;;;;;;;;;;;17.60;65.70;;;;;;5072978;28;1850;-69
2023/03/28 09:43:43;;;;;;;;;;;17.60;65.70;;;;;;5050362;28;1371;-69
2023/03/28 09:46:10;;;;;;;;;;;17.60;65.70;;;;;;5046864;28;1906;-68
2023/03/28 09:48:36;;;;;;;;;;;17.70;65.80;;;;;;5050596;28;841;-68
2023/03/28 09:51:02;;;;;;;;;;;17.60;65.80;;;;;;5040422;28;899;-69
2023/03/28 09:53:28;;;;;;;;;;;17.70;65.70;;;;;;5040903;28;950;-69
2023/03/28 09:55:54;;;;;;;;;;;17.70;65.70;;;;;;5040795;28;1284;-69
2023/03/28 09:58:20;;;;;;;;;;;17.70;65.70;;;;;;5041665;28;787;-69
2023/03/28 10:00:47;;;;;;;;;;;17.70;65.60;;;;;;5039660;28;1246;-70
2023/03/28 10:03:27;;;;;;;;;;;17.70;65.50;;;;;;5027248;28;1100;-68
2023/03/28 10:05:54;;;;;;;;;;;17.70;65.50;;;;;;5045670;28;1993;-69
2023/03/28 10:08:21;;;;;;;;;;;17.70;65.40;;;;;;5072884;28;840;-69
2023/03/28 10:10:58;;;;;;;;;;;17.80;65.40;;;;;;5043422;28;813;-70
2023/03/28 10:13:23;;;;;;;;;;;17.80;65.40;;;;;;5074810;28;871;-71
2023/03/28 10:15:49;;;;;;;;;;;17.80;65.30;;;;;;5048038;28;1355;-70
2023/03/28 10:18:20;;;;;;;;;;;17.80;65.30;;;;;;5039685;28;964;-70
2023/03/28 10:20:47;;;;;;;;;;;17.80;65.20;;;;;;5040976;28;858;-70
2023/03/28 10:23:12;;;;;;;;;;;17.80;65.10;;;;;;5072832;28;1026;-71
2023/03/28 10:25:38;;;;;;;;;;;17.90;65.10;;;;;;5037770;28;1909;-70
2023/03/28 10:28:04;;;;;;;;;;;17.90;65.10;;;;;;5042294;28;1349;-71
2023/03/28 10:30:29;;;;;;;;;;;17.90;65.10;;;;;;5045073;28;1413;-70
2023/03/28 10:33:10;;;;;;;;;;;17.80;65.00;;;;;;5040975;28;1029;-70
2023/03/28 10:35:40;;;;;;;;;;;17.80;65.00;;;;;;5042199;28;1494;-70
2023/03/28 10:38:09;;;;;;;;;;;17.90;65.00;;;;;;5038041;28;1547;-70
2023/03/28 10:40:35;;;;;;;;;;;17.90;65.00;;;;;;5048541;28;1439;-70
2023/03/28 10:43:00;;;;;;;;;;;17.80;65.00;;;;;;5073146;28;1077;-70
2023/03/28 10:45:36;;;;;;;;;;;17.90;65.00;;;;;;5048184;28;1961;-70
2023/03/28 10:48:05;;;;;;;;;;;17.90;65.00;;;;;;5067563;28;1151;-70
2023/03/28 10:50:35;;;;;;;;;;;17.90;65.10;;;;;;5072447;28;812;-70
2023/03/28 10:53:09;;;;;;;;;;;17.90;65.10;;;;;;5075221;28;1010;-70
2023/03/28 10:55:37;;;;;;;;;;;17.80;65.00;;;;;;5044951;28;1305;-70
2023/03/28 10:58:12;;;;;;;;;;;17.80;65.00;;;;;;5037860;28;915;-70
2023/03/28 11:00:40;;;;;;;;;;;17.90;65.10;;;;;;5039966;28;2045;-69
2023/03/28 11:03:05;;;;;;;;;;;17.80;65.10;;;;;;5071842;28;1249;-69
2023/03/28 11:05:37;;;;;;;;;;;17.80;65.10;;;;;;5040532;28;1882;-69
2023/03/28 11:08:02;;;;;;;;;;;17.80;65.10;;;;;;5037345;28;870;-69
2023/03/28 11:10:35;;;;;;;;;;;17.80;65.10;;;;;;5040037;28;875;-70
2023/03/28 11:13:10;;;;;;;;;;;17.80;65.10;;;;;;5039182;28;879;-69
2023/03/28 11:15:58;;;;;;;;;;;17.80;65.20;;;;;;5038537;28;1259;-69
2023/03/28 11:18:30;;;;;;;;;;;17.80;65.20;;;;;;5038006;28;1111;-69
2023/03/28 11:21:11;;;;;;;;;;;17.80;65.20;;;;;;5042690;28;912;-69
2023/03/28 11:23:36;;;;;;;;;;;17.80;65.20;;;;;;5039749;28;1327;-69
2023/03/28 11:26:08;;;;;;;;;;;17.80;65.30;;;;;;5038833;28;1987;-69
2023/03/28 11:28:39;;;;;;;;;;;17.80;65.30;;;;;;5039741;28;885;-69
2023/03/28 11:31:07;;;;;;;;;;;17.80;65.30;;;;;;5039688;28;897;-69
2023/03/28 11:33:51;;;;;;;;;;;17.80;65.30;;;;;;5041047;28;828;-68
2023/03/28 11:36:33;;;;;;;;;;;17.80;65.20;;;;;;5039419;28;1298;-69
2023/03/28 11:39:06;;;;;;;;;;;17.80;65.20;;;;;;5040914;28;829;-69
2023/03/28 11:41:32;;;;;;;;;;;17.80;65.20;;;;;;5039557;28;839;-69
2023/03/28 11:44:21;;;;;;;;;;;17.80;65.10;;;;;;5037192;28;1249;-69
2023/03/28 11:46:52;;;;;;;;;;;17.90;65.10;;;;;;5044432;28;1957;-69
2023/03/28 11:49:50;;;;;;;;;;;17.90;65.10;;;;;;5046821;28;943;-70
2023/03/28 11:52:25;;;;;;;;;;;17.80;65.00;;;;;;5029544;28;1186;-69
2023/03/28 11:54:50;;;;;;;;;;;17.90;64.90;;;;;;5067225;28;1276;-69
2023/03/28 11:57:18;;;;;;;;;;;17.90;64.90;;;;;;5040841;28;875;-69
2023/03/28 11:59:47;;;;;;;;;;;17.90;64.80;;;;;;5038036;28;2090;-70
2023/03/28 12:02:29;;;;;;;;;;;17.90;64.80;;;;;;5042106;28;1553;-69
2023/03/28 12:04:56;;;;;;;;;;;17.90;64.80;;;;;;5041825;28;1421;-70
2023/03/28 12:07:23;;;;;;;;;;;17.90;64.80;;;;;;5039829;28;1945;-69
2023/03/28 12:09:53;;;;;;;;;;;17.90;64.80;;;;;;5037611;28;1019;-69
2023/03/28 12:12:20;;;;;;;;;;;17.90;64.80;;;;;;5037308;28;804;-69
2023/03/28 12:14:52;;;;;;;;;;;17.90;64.80;;;;;;5039693;28;1362;-69
2023/03/28 12:17:19;;;;;;;;;;;17.90;64.80;;;;;;5040057;28;1271;-70
2023/03/28 12:19:47;;;;;;;;;;;17.90;64.90;;;;;;5064200;28;2127;-70
2023/03/28 12:22:18;;;;;;;;;;;17.90;64.90;;;;;;5040111;28;1261;-70
2023/03/28 12:24:45;;;;;;;;;;;17.90;64.90;;;;;;5067226;28;1346;-69
2023/03/28 12:27:11;;;;;;;;;;;17.90;64.90;;;;;;5066291;28;1965;-69
2023/03/28 12:29:49;;;;;;;;;;;17.80;64.90;;;;;;5042210;28;1210;-69
2023/03/28 12:32:20;;;;;;;;;;;17.90;65.00;;;;;;5040789;28;908;-69
2023/03/28 12:34:51;;;;;;;;;;;17.90;65.00;;;;;;5035003;28;1287;-70
2023/03/28 12:37:17;;;;;;;;;;;17.80;65.00;;;;;;5058431;28;1497;-69
2023/03/28 12:39:48;;;;;;;;;;;17.90;65.00;;;;;;5047547;28;907;-69
2023/03/28 12:42:14;;;;;;;;;;;17.90;65.00;;;;;;5045586;28;935;-69
2023/03/28 12:44:49;;;;;;;;;;;17.90;65.10;;;;;;5034255;28;1219;-69
2023/03/28 12:47:15;;;;;;;;;;;17.90;65.10;;;;;;5038212;28;1962;-69
2023/03/28 12:49:41;;;;;;;;;;;17.90;65.90;;;;;;5039100;28;939;-69
2023/03/28 12:52:06;;;;;;;;;;;17.90;65.80;;;;;;5036284;28;858;-69
2023/03/28 12:54:32;;;;;;;;;;;17.90;65.50;;;;;;5069563;28;1341;-69
2023/03/28 12:56:58;;;;;;;;;;;17.90;65.50;;;;;;5037311;28;993;-69
2023/03/28 12:59:38;;;;;;;;;;;17.90;65.50;;;;;;5040377;28;903;-69
2023/03/28 13:02:24;;;;;;;;;;;17.90;65.50;;;;;;5035270;28;1422;-69
2023/03/28 13:04:49;;;;;;;;;;;17.90;65.40;;;;;;5036535;28;1331;-69
2023/03/28 13:07:33;;;;;;;;;;;17.90;65.50;;;;;;5036748;28;1898;-69
2023/03/28 13:10:01;;;;;;;;;;;17.90;65.50;;;;;;5037039;28;833;-70
2023/03/28 13:12:45;;;;;;;;;;;17.90;65.50;;;;;;5038869;28;880;-70
2023/03/28 13:15:13;;;;;;;;;;;17.80;65.50;;;;;;5036706;28;1346;-69
2023/03/28 13:17:45;;;;;;;;;;;17.90;65.60;;;;;;5037922;28;1294;-69
2023/03/28 13:20:14;;;;;;;;;;;17.90;65.50;;;;;;5040068;28;894;-69
2023/03/28 13:22:46;;;;;;;;;;;17.80;65.50;;;;;;5041169;28;1183;-70
2023/03/28 13:25:20;;;;;;;;;;;17.80;65.60;;;;;;5033828;28;1245;-70
2023/03/28 13:27:46;;;;;;;;;;;17.90;65.60;;;;;;5042316;28;884;-70
2023/03/28 13:30:19;;;;;;;;;;;17.80;65.50;;;;;;5038200;28;871;-70
2023/03/28 13:32:45;;;;;;;;;;;17.80;65.50;;;;;;5039895;28;895;-70
2023/03/28 13:35:34;;;;;;;;;;;17.80;65.50;;;;;;5069969;28;1252;-69
2023/03/28 13:38:32;;;;;;;;;;;17.80;65.60;;;;;;5036484;28;1490;-69
2023/03/28 13:40:58;;;;;;;;;;;17.80;65.50;;;;;;5041056;28;1164;-69
2023/03/28 13:43:25;;;;;;;;;;;17.80;65.60;;;;;;5039014;28;856;-69
2023/03/28 13:45:53;;;;;;;;;;;17.80;65.60;;;;;;5068026;28;1906;-69
2023/03/28 13:48:20;;;;;;;;;;;17.80;65.60;;;;;;5041669;28;875;-69
2023/03/28 13:50:46;;;;;;;;;;;17.80;65.70;;;;;;5039411;28;805;-69
2023/03/28 13:53:11;;;;;;;;;;;17.80;65.60;;;;;;5042148;28;895;-69
2023/03/28 13:55:37;;;;;;;;;;;17.70;66.00;;;;;;5039430;28;1338;-70
2023/03/28 13:58:02;;;;;;;;;;;17.80;65.60;;;;;;5042664;28;974;-70
2023/03/28 14:00:28;;;;;;;;;;;17.70;65.60;;;;;;5043962;28;805;-71
2023/03/28 14:02:59;;;;;;;;;;;17.80;65.70;;;;;;5042305;28;931;-71
2023/03/28 14:05:26;;;;;;;;;;;17.80;65.70;;;;;;5040704;28;1895;-69
2023/03/28 14:07:52;;;;;;;;;;;17.80;65.70;;;;;;5042811;28;900;-69
2023/03/28 14:10:24;;;;;;;;;;;17.70;65.60;;;;;;5042672;28;943;-68
2023/03/28 14:12:50;;;;;;;;;;;17.70;65.60;;;;;;5039283;28;868;-68
2023/03/28 14:15:15;;;;;;;;;;;17.70;65.70;;;;;;5038410;28;1351;-69
2023/03/28 14:17:41;;;;;;;;;;;17.70;65.70;;;;;;5040308;28;1308;-69
2023/03/28 14:20:07;;;;;;;;;;;17.70;65.70;;;;;;5042687;28;970;-69
2023/03/28 14:22:32;;;;;;;;;;;17.70;65.70;;;;;;5038786;28;904;-69
2023/03/28 14:24:59;;;;;;;;;;;17.70;65.70;;;;;;5036741;28;1326;-70
2023/03/28 14:27:44;;;;;;;;;;;17.70;65.70;;;;;;5049861;28;1967;-69
2023/03/28 14:30:21;;;;;;;;;;;17.70;65.70;;;;;;5042915;28;1157;-69
2023/03/28 14:32:57;;;;;;;;;;;17.70;65.70;;;;;;5072070;28;845;-69
2023/03/28 14:35:24;;;;;;;;;;;17.70;65.70;;;;;;5040071;28;1291;-69
2023/03/28 14:37:50;;;;;;;;;;;17.70;65.80;;;;;;5040764;28;1295;-69
2023/03/28 14:40:18;;;;;;;;;;;17.70;65.80;;;;;;5037015;28;874;-70
2023/03/28 14:42:44;;;;;;;;;;;17.70;65.80;;;;;;5038487;28;1003;-69